createdAt,value
2018-02-09T19:50:06.506Z,58.10
2018-02-09T19:51:04.409Z,74.50
2018-02-09T19:52:04.016Z,76.10
2018-02-09T19:53:57.252Z,78.20
2018-02-09T19:54:57.003Z,75.70
2018-02-09T19:56:50.516Z,80.30
2018-02-09T19:57:50.409Z,79.60
2018-02-09T19:59:43.825Z,79.90
2018-02-09T20:00:43.793Z,80.70
2018-02-09T20:02:37.096Z,75.40
2018-02-09T20:03:37.008Z,80.80
2018-02-09T20:05:30.762Z,79.60
2018-02-09T20:06:30.088Z,79.80
2018-02-09T20:08:23.169Z,79.50
2018-02-09T20:09:23.093Z,79.70
2018-02-09T20:11:18.337Z,80.90
2018-02-09T20:12:16.062Z,82.10
2018-02-09T20:14:13.548Z,81.70
2018-02-09T20:15:14.118Z,76.40
2018-02-09T20:17:06.928Z,78.70
2018-02-09T20:18:06.885Z,78.00
2018-02-09T20:20:01.444Z,79.90
2018-02-09T20:21:01.508Z,79.70
2018-02-09T20:23:10.010Z,78.70
2018-02-09T20:24:09.880Z,76.90
2018-02-09T20:26:07.587Z,78.70
2018-02-09T20:27:07.488Z,74.70
2018-02-09T20:29:00.749Z,78.90
2018-02-09T20:30:00.717Z,75.20
2018-02-09T20:31:55.423Z,77.60
2018-02-09T20:32:55.359Z,81.60
2018-02-09T20:34:49.678Z,77.30
2018-02-09T20:35:49.514Z,77.30
2018-02-09T20:37:44.091Z,75.60
2018-02-09T20:38:43.778Z,76.50
2018-02-09T20:40:37.110Z,77.00
2018-02-09T20:41:36.670Z,79.00
2018-02-09T20:43:34.090Z,77.50
2018-02-09T20:44:34.273Z,76.50
2018-02-09T20:45:35.563Z,79.10
2018-02-09T20:46:36.063Z,82.40
2018-02-09T20:47:33.706Z,80.00
2018-02-09T20:48:34.710Z,79.20
2018-02-09T20:49:33.791Z,81.40
2018-02-09T20:50:33.762Z,80.20
2018-02-09T20:51:33.600Z,81.50
2018-02-09T20:52:33.654Z,77.70
2018-02-09T20:53:33.668Z,75.30
2018-02-09T20:54:33.676Z,76.40
2018-02-09T20:55:34.439Z,77.70
2018-02-09T20:56:33.325Z,80.20
2018-02-09T20:57:33.434Z,76.70
2018-02-09T20:58:33.265Z,78.60
2018-02-09T20:59:36.270Z,76.20
2018-02-09T21:00:36.559Z,81.40
2018-02-09T21:01:33.139Z,76.30
2018-02-09T21:02:34.032Z,79.70
2018-02-09T21:03:33.068Z,83.50
2018-02-09T21:04:35.661Z,78.90
2018-02-09T21:05:33.311Z,81.40
2018-02-09T21:06:32.988Z,81.30
2018-02-09T21:07:31.498Z,79.10
2018-02-09T21:08:31.361Z,84.10
2018-02-09T21:09:30.978Z,82.50
2018-02-09T21:10:30.886Z,85.20
2018-02-09T21:11:32.742Z,83.00
2018-02-09T21:12:31.106Z,83.40
2018-02-09T21:13:31.746Z,80.20
2018-02-09T21:14:30.669Z,79.20
2018-02-09T21:15:31.327Z,85.50
2018-02-09T21:16:31.217Z,78.80
2018-02-09T21:17:30.622Z,82.90
2018-02-09T21:18:30.595Z,82.20
2018-02-09T21:21:27.128Z,81.10
2018-02-09T21:22:26.794Z,83.00
2018-02-09T21:24:20.713Z,80.60
2018-02-09T21:26:36.470Z,78.20
2018-02-09T21:27:35.075Z,82.00
2018-02-09T21:29:29.646Z,81.10
2018-02-09T21:30:29.699Z,83.40
2018-02-09T21:32:24.380Z,83.20
2018-02-09T21:33:24.590Z,83.30
2018-02-09T21:35:20.373Z,83.80
2018-02-09T21:38:13.110Z,86.70
2018-02-09T21:39:12.710Z,87.70
2018-02-09T21:41:09.331Z,86.00
2018-02-09T21:44:06.657Z,83.00
2018-02-09T21:46:33.381Z,81.90
2018-02-09T21:47:33.038Z,83.20
2018-02-09T21:48:33.106Z,83.90
2018-02-09T21:49:35.007Z,81.50
2018-02-09T21:50:34.553Z,85.40
2018-02-09T21:51:32.866Z,84.80
2018-02-09T21:52:32.743Z,83.60
2018-02-09T21:53:32.779Z,86.70
2018-02-09T21:54:34.373Z,84.40
2018-02-09T21:55:38.305Z,82.50
2018-02-09T21:56:32.526Z,86.50
2018-02-09T21:57:33.573Z,85.10
2018-02-09T21:58:32.784Z,82.90
2018-02-09T21:59:32.820Z,83.20
2018-02-09T22:00:32.381Z,87.70
2018-02-09T22:01:32.409Z,80.60
2018-02-09T22:02:32.417Z,80.20
2018-02-09T22:03:32.328Z,83.30
2018-02-09T22:04:32.337Z,88.10
2018-02-09T22:05:32.450Z,80.90
2018-02-09T22:06:32.360Z,80.00
2018-02-09T22:07:32.079Z,80.10
2018-02-09T22:08:31.969Z,83.30
2018-02-09T22:09:30.856Z,80.30
2018-02-09T22:10:31.044Z,84.20
2018-02-09T22:11:30.217Z,84.50
2018-02-09T22:12:30.051Z,79.10
2018-02-09T22:13:31.524Z,81.40
2018-02-09T22:14:32.550Z,81.70
2018-02-09T22:15:30.521Z,77.80
2018-02-09T22:16:30.015Z,80.40
2018-02-09T22:17:29.915Z,82.30
2018-02-09T22:18:32.841Z,84.70
2018-02-09T22:19:29.826Z,81.40
2018-02-09T22:20:29.461Z,86.30
2018-02-09T22:21:29.978Z,85.90
2018-02-09T22:22:29.517Z,82.00
2018-02-09T22:23:29.407Z,74.70
2018-02-09T22:24:31.171Z,74.60
2018-02-09T22:25:29.385Z,72.30
2018-02-09T22:26:29.820Z,79.20
2018-02-09T22:27:29.443Z,76.80
2018-02-09T22:28:29.506Z,81.30
2018-02-09T22:29:35.043Z,77.20
2018-02-09T22:30:29.064Z,74.80
2018-02-09T22:31:31.952Z,73.20
2018-02-09T22:32:29.019Z,74.00
2018-02-09T22:33:29.133Z,72.60
2018-02-09T22:34:30.556Z,71.00
2018-02-09T22:35:30.039Z,76.50
2018-02-09T22:36:29.170Z,71.10
2018-02-09T22:37:29.072Z,73.80
2018-02-09T22:38:37.028Z,72.30
2018-02-09T22:39:28.843Z,75.30
2018-02-09T22:40:31.684Z,73.00
2018-02-09T22:41:29.201Z,66.80
2018-02-09T22:42:28.602Z,78.80
2018-02-09T22:43:28.731Z,73.00
2018-02-09T22:44:31.522Z,73.90
2018-02-09T22:45:28.763Z,74.00
2018-02-09T22:46:31.048Z,74.10
2018-02-09T22:47:28.557Z,72.50
2018-02-09T22:48:28.328Z,71.10
2018-02-09T22:49:28.652Z,71.40
2018-02-09T22:50:28.338Z,77.00
2018-02-09T22:51:28.963Z,76.90
2018-02-09T22:52:28.226Z,75.80
2018-02-09T22:53:30.176Z,75.60
2018-02-09T22:54:30.411Z,74.30
2018-02-09T22:55:29.359Z,74.30
2018-02-09T22:56:28.095Z,74.50
2018-02-09T22:57:31.085Z,72.10
2018-02-09T22:58:28.056Z,73.40
2018-02-09T22:59:31.191Z,70.20
2018-02-09T23:00:27.877Z,70.40
2018-02-09T23:01:27.793Z,71.20
2018-02-09T23:02:42.358Z,69.50
2018-02-09T23:04:22.799Z,72.90
2018-02-09T23:05:22.731Z,73.70
2018-02-09T23:07:20.852Z,69.00
2018-02-09T23:08:20.867Z,72.00
2018-02-09T23:10:24.310Z,68.70
2018-02-09T23:11:24.373Z,70.10
2018-02-09T23:13:17.344Z,69.00
2018-02-09T23:14:17.056Z,73.50
2018-02-09T23:16:11.833Z,73.90
2018-02-09T23:17:11.751Z,75.00
2018-02-09T23:19:07.939Z,69.70
2018-02-09T23:22:01.323Z,70.90
2018-02-09T23:23:01.477Z,73.10
2018-02-09T23:24:57.077Z,69.30
2018-02-09T23:27:51.881Z,68.10
2018-02-09T23:28:51.596Z,73.60
2018-02-09T23:30:50.554Z,73.70
2018-02-09T23:33:47.311Z,72.60
2018-02-09T23:34:46.737Z,71.30
2018-02-09T23:36:40.292Z,70.60
2018-02-09T23:37:40.247Z,69.20
2018-02-09T23:39:33.659Z,66.80
2018-02-09T23:40:33.772Z,68.70
2018-02-09T23:42:26.553Z,70.00
2018-02-09T23:43:26.417Z,71.90
2018-02-09T23:45:19.734Z,71.20
2018-02-09T23:46:19.815Z,70.00
2018-02-09T23:48:17.075Z,69.10
2018-02-09T23:50:30.308Z,69.10
2018-02-09T23:51:30.008Z,70.80
2018-02-09T23:53:33.805Z,68.20
2018-02-09T23:54:33.971Z,71.60
2018-02-09T23:56:28.501Z,69.20
2018-02-09T23:57:28.575Z,66.20
2018-02-09T23:59:22.146Z,68.30
